sensor_id;sensor_type;location;lat;lon;timestamp;temperature;humidity
74968;SHT30;63523;51.880;12.630;2023-09-07T00:00:58;16.67;73.36
74968;SHT30;63523;51.880;12.630;2023-09-07T00:03:25;16.67;73.32
74968;SHT30;63523;51.880;12.630;2023-09-07T00:05:50;16.65;73.41
74968;SHT30;63523;51.880;12.630;2023-09-07T00:08:15;16.60;73.24
74968;SHT30;63523;51.880;12.630;2023-09-07T00:10:40;16.49;73.22
74968;SHT30;63523;51.880;12.630;2023-09-07T00:13:07;16.44;73.30
74968;SHT30;63523;51.880;12.630;2023-09-07T00:15:36;16.35;73.55
74968;SHT30;63523;51.880;12.630;2023-09-07T00:18:02;16.26;74.16
74968;SHT30;63523;51.880;12.630;2023-09-07T00:20:28;16.19;74.06
74968;SHT30;63523;51.880;12.630;2023-09-07T00:22:53;16.11;74.47
74968;SHT30;63523;51.880;12.630;2023-09-07T00:25:18;16.02;74.69
74968;SHT30;63523;51.880;12.630;2023-09-07T00:27:45;15.98;75.20
74968;SHT30;63523;51.880;12.630;2023-09-07T00:30:11;15.98;75.37
74968;SHT30;63523;51.880;12.630;2023-09-07T00:32:37;15.94;75.43
74968;SHT30;63523;51.880;12.630;2023-09-07T00:35:03;15.90;76.02
74968;SHT30;63523;51.880;12.630;2023-09-07T00:37:29;15.90;76.07
74968;SHT30;63523;51.880;12.630;2023-09-07T00:39:54;15.86;76.08
74968;SHT30;63523;51.880;12.630;2023-09-07T00:42:19;15.80;76.33
74968;SHT30;63523;51.880;12.630;2023-09-07T00:44:45;15.77;76.70
74968;SHT30;63523;51.880;12.630;2023-09-07T00:47:10;15.74;76.44
74968;SHT30;63523;51.880;12.630;2023-09-07T00:49:37;15.74;76.91
74968;SHT30;63523;51.880;12.630;2023-09-07T00:52:04;15.70;76.51
74968;SHT30;63523;51.880;12.630;2023-09-07T00:54:30;15.67;76.91
74968;SHT30;63523;51.880;12.630;2023-09-07T00:56:55;15.67;77.19
74968;SHT30;63523;51.880;12.630;2023-09-07T00:59:21;15.63;77.16
74968;SHT30;63523;51.880;12.630;2023-09-07T01:01:46;15.59;77.13
74968;SHT30;63523;51.880;12.630;2023-09-07T01:04:11;15.56;77.04
74968;SHT30;63523;51.880;12.630;2023-09-07T01:06:39;15.52;77.04
74968;SHT30;63523;51.880;12.630;2023-09-07T01:09:11;15.48;77.13
74968;SHT30;63523;51.880;12.630;2023-09-07T01:11:38;15.43;77.54
74968;SHT30;63523;51.880;12.630;2023-09-07T01:14:03;15.38;77.52
74968;SHT30;63523;51.880;12.630;2023-09-07T01:16:30;15.34;77.55
74968;SHT30;63523;51.880;12.630;2023-09-07T01:18:56;15.29;77.59
74968;SHT30;63523;51.880;12.630;2023-09-07T01:21:22;15.28;77.36
74968;SHT30;63523;51.880;12.630;2023-09-07T01:23:48;15.24;77.81
74968;SHT30;63523;51.880;12.630;2023-09-07T01:26:15;15.25;78.87
74968;SHT30;63523;51.880;12.630;2023-09-07T01:28:40;15.39;79.21
74968;SHT30;63523;51.880;12.630;2023-09-07T01:31:06;15.49;78.46
74968;SHT30;63523;51.880;12.630;2023-09-07T01:33:32;15.60;78.52
74968;SHT30;63523;51.880;12.630;2023-09-07T01:35:57;15.76;78.41
74968;SHT30;63523;51.880;12.630;2023-09-07T01:38:23;15.90;77.95
74968;SHT30;63523;51.880;12.630;2023-09-07T01:40:48;16.07;77.59
74968;SHT30;63523;51.880;12.630;2023-09-07T01:43:13;16.30;76.84
74968;SHT30;63523;51.880;12.630;2023-09-07T01:45:39;16.55;76.09
74968;SHT30;63523;51.880;12.630;2023-09-07T01:48:09;16.72;75.03
74968;SHT30;63523;51.880;12.630;2023-09-07T01:50:35;16.83;74.41
74968;SHT30;63523;51.880;12.630;2023-09-07T01:53:01;16.81;73.79
74968;SHT30;63523;51.880;12.630;2023-09-07T01:55:28;16.74;73.26
74968;SHT30;63523;51.880;12.630;2023-09-07T01:57:53;16.63;73.41
74968;SHT30;63523;51.880;12.630;2023-09-07T02:00:18;16.53;73.75
74968;SHT30;63523;51.880;12.630;2023-09-07T02:02:44;16.39;74.17
74968;SHT30;63523;51.880;12.630;2023-09-07T02:05:09;16.21;74.62
74968;SHT30;63523;51.880;12.630;2023-09-07T02:07:35;16.10;75.20
74968;SHT30;63523;51.880;12.630;2023-09-07T02:10:01;15.97;75.28
74968;SHT30;63523;51.880;12.630;2023-09-07T02:12:28;15.89;75.29
74968;SHT30;63523;51.880;12.630;2023-09-07T02:14:53;15.89;75.76
74968;SHT30;63523;51.880;12.630;2023-09-07T02:17:18;15.90;75.71
74968;SHT30;63523;51.880;12.630;2023-09-07T02:19:44;15.96;76.34
74968;SHT30;63523;51.880;12.630;2023-09-07T02:22:10;16.11;76.31
74968;SHT30;63523;51.880;12.630;2023-09-07T02:24:35;16.35;75.74
74968;SHT30;63523;51.880;12.630;2023-09-07T02:27:01;16.57;74.68
74968;SHT30;63523;51.880;12.630;2023-09-07T02:29:26;16.60;73.12
74968;SHT30;63523;51.880;12.630;2023-09-07T02:31:52;16.49;72.88
74968;SHT30;63523;51.880;12.630;2023-09-07T02:34:17;16.45;73.48
74968;SHT30;63523;51.880;12.630;2023-09-07T02:36:42;16.30;73.51
74968;SHT30;63523;51.880;12.630;2023-09-07T02:39:07;16.21;74.15
74968;SHT30;63523;51.880;12.630;2023-09-07T02:41:33;16.14;74.64
74968;SHT30;63523;51.880;12.630;2023-09-07T02:43:59;16.08;74.36
74968;SHT30;63523;51.880;12.630;2023-09-07T02:46:24;16.00;74.67
74968;SHT30;63523;51.880;12.630;2023-09-07T02:48:49;15.94;75.39
74968;SHT30;63523;51.880;12.630;2023-09-07T02:51:15;15.93;76.25
74968;SHT30;63523;51.880;12.630;2023-09-07T02:53:40;15.98;76.09
74968;SHT30;63523;51.880;12.630;2023-09-07T02:56:05;16.07;75.90
74968;SHT30;63523;51.880;12.630;2023-09-07T02:58:32;16.17;75.75
74968;SHT30;63523;51.880;12.630;2023-09-07T03:00:58;16.35;74.86
74968;SHT30;63523;51.880;12.630;2023-09-07T03:03:24;16.45;74.44
74968;SHT30;63523;51.880;12.630;2023-09-07T03:05:49;16.52;74.19
74968;SHT30;63523;51.880;12.630;2023-09-07T03:08:14;16.51;73.24
74968;SHT30;63523;51.880;12.630;2023-09-07T03:10:40;16.35;72.87
74968;SHT30;63523;51.880;12.630;2023-09-07T03:13:06;16.15;73.57
74968;SHT30;63523;51.880;12.630;2023-09-07T03:15:32;15.97;74.30
74968;SHT30;63523;51.880;12.630;2023-09-07T03:17:57;15.82;74.76
74968;SHT30;63523;51.880;12.630;2023-09-07T03:20:23;15.66;75.28
74968;SHT30;63523;51.880;12.630;2023-09-07T03:22:48;15.52;75.93
74968;SHT30;63523;51.880;12.630;2023-09-07T03:25:14;15.46;76.18
74968;SHT30;63523;51.880;12.630;2023-09-07T03:27:39;15.36;76.44
74968;SHT30;63523;51.880;12.630;2023-09-07T03:30:05;15.32;76.33
74968;SHT30;63523;51.880;12.630;2023-09-07T03:32:32;15.24;76.59
74968;SHT30;63523;51.880;12.630;2023-09-07T03:35:03;15.17;76.64
74968;SHT30;63523;51.880;12.630;2023-09-07T03:37:29;15.12;76.72
74968;SHT30;63523;51.880;12.630;2023-09-07T03:39:55;15.04;76.35
74968;SHT30;63523;51.880;12.630;2023-09-07T03:42:21;14.97;76.87
74968;SHT30;63523;51.880;12.630;2023-09-07T03:44:47;14.91;77.43
74968;SHT30;63523;51.880;12.630;2023-09-07T03:47:13;14.85;77.31
74968;SHT30;63523;51.880;12.630;2023-09-07T03:49:39;14.81;77.46
74968;SHT30;63523;51.880;12.630;2023-09-07T03:52:07;14.74;77.94
74968;SHT30;63523;51.880;12.630;2023-09-07T03:54:32;14.67;78.03
74968;SHT30;63523;51.880;12.630;2023-09-07T03:57:00;14.60;78.17
74968;SHT30;63523;51.880;12.630;2023-09-07T03:59:29;14.59;78.00
74968;SHT30;63523;51.880;12.630;2023-09-07T04:01:54;14.55;78.05
74968;SHT30;63523;51.880;12.630;2023-09-07T04:04:20;14.50;77.92
74968;SHT30;63523;51.880;12.630;2023-09-07T04:06:48;14.52;78.30
74968;SHT30;63523;51.880;12.630;2023-09-07T04:09:14;14.52;78.83
74968;SHT30;63523;51.880;12.630;2023-09-07T04:11:39;14.57;79.32
74968;SHT30;63523;51.880;12.630;2023-09-07T04:14:05;14.79;80.14
74968;SHT30;63523;51.880;12.630;2023-09-07T04:16:30;15.12;78.98
74968;SHT30;63523;51.880;12.630;2023-09-07T04:18:56;15.28;77.09
74968;SHT30;63523;51.880;12.630;2023-09-07T04:21:21;15.31;76.09
74968;SHT30;63523;51.880;12.630;2023-09-07T04:23:46;15.22;76.51
74968;SHT30;63523;51.880;12.630;2023-09-07T04:26:12;15.20;77.05
74968;SHT30;63523;51.880;12.630;2023-09-07T04:28:38;15.36;78.16
74968;SHT30;63523;51.880;12.630;2023-09-07T04:31:07;15.57;77.88
74968;SHT30;63523;51.880;12.630;2023-09-07T04:33:33;15.86;76.88
74968;SHT30;63523;51.880;12.630;2023-09-07T04:36:12;16.11;75.70
74968;SHT30;63523;51.880;12.630;2023-09-07T04:38:38;16.35;74.89
74968;SHT30;63523;51.880;12.630;2023-09-07T04:41:11;16.53;74.15
74968;SHT30;63523;51.880;12.630;2023-09-07T04:43:38;16.72;73.80
74968;SHT30;63523;51.880;12.630;2023-09-07T04:46:05;16.87;73.39
74968;SHT30;63523;51.880;12.630;2023-09-07T04:48:31;17.07;72.76
74968;SHT30;63523;51.880;12.630;2023-09-07T04:51:03;17.25;72.23
74968;SHT30;63523;51.880;12.630;2023-09-07T04:53:31;17.42;71.61
74968;SHT30;63523;51.880;12.630;2023-09-07T04:55:57;17.57;71.00
74968;SHT30;63523;51.880;12.630;2023-09-07T04:58:22;17.67;70.70
74968;SHT30;63523;51.880;12.630;2023-09-07T05:00:48;17.83;70.48
74968;SHT30;63523;51.880;12.630;2023-09-07T05:03:13;17.96;69.92
74968;SHT30;63523;51.880;12.630;2023-09-07T05:05:41;17.98;70.01
74968;SHT30;63523;51.880;12.630;2023-09-07T05:08:06;18.07;69.96
74968;SHT30;63523;51.880;12.630;2023-09-07T05:10:36;18.10;69.82
74968;SHT30;63523;51.880;12.630;2023-09-07T05:13:02;18.24;69.38
74968;SHT30;63523;51.880;12.630;2023-09-07T05:15:27;18.28;69.15
74968;SHT30;63523;51.880;12.630;2023-09-07T05:17:54;18.39;68.88
74968;SHT30;63523;51.880;12.630;2023-09-07T05:20:19;18.46;68.84
74968;SHT30;63523;51.880;12.630;2023-09-07T05:22:45;18.57;68.52
74968;SHT30;63523;51.880;12.630;2023-09-07T05:25:11;18.73;68.10
74968;SHT30;63523;51.880;12.630;2023-09-07T05:27:37;18.89;67.99
74968;SHT30;63523;51.880;12.630;2023-09-07T05:30:04;18.99;67.92
74968;SHT30;63523;51.880;12.630;2023-09-07T05:32:38;19.01;68.12
74968;SHT30;63523;51.880;12.630;2023-09-07T05:35:04;19.04;67.93
74968;SHT30;63523;51.880;12.630;2023-09-07T05:37:33;19.10;67.95
74968;SHT30;63523;51.880;12.630;2023-09-07T05:39:59;19.08;67.87
74968;SHT30;63523;51.880;12.630;2023-09-07T05:42:24;19.14;67.84
74968;SHT30;63523;51.880;12.630;2023-09-07T05:44:51;19.11;68.17
74968;SHT30;63523;51.880;12.630;2023-09-07T05:47:16;19.17;67.83
74968;SHT30;63523;51.880;12.630;2023-09-07T05:49:45;19.24;67.71
74968;SHT30;63523;51.880;12.630;2023-09-07T05:52:14;19.25;67.57
74968;SHT30;63523;51.880;12.630;2023-09-07T05:54:39;19.27;67.38
74968;SHT30;63523;51.880;12.630;2023-09-07T05:57:05;19.45;66.85
74968;SHT30;63523;51.880;12.630;2023-09-07T05:59:30;19.45;67.16
74968;SHT30;63523;51.880;12.630;2023-09-07T06:01:55;19.51;66.93
74968;SHT30;63523;51.880;12.630;2023-09-07T06:04:22;19.52;67.17
74968;SHT30;63523;51.880;12.630;2023-09-07T06:06:47;19.59;67.34
74968;SHT30;63523;51.880;12.630;2023-09-07T06:09:12;19.63;67.40
74968;SHT30;63523;51.880;12.630;2023-09-07T06:11:38;19.67;67.23
74968;SHT30;63523;51.880;12.630;2023-09-07T06:14:03;19.79;66.56
74968;SHT30;63523;51.880;12.630;2023-09-07T06:16:28;19.84;66.66
74968;SHT30;63523;51.880;12.630;2023-09-07T06:18:54;19.94;66.54
74968;SHT30;63523;51.880;12.630;2023-09-07T06:21:19;19.98;66.38
74968;SHT30;63523;51.880;12.630;2023-09-07T06:23:44;20.04;66.74
74968;SHT30;63523;51.880;12.630;2023-09-07T06:26:09;20.08;66.27
74968;SHT30;63523;51.880;12.630;2023-09-07T06:28:35;20.15;66.74
74968;SHT30;63523;51.880;12.630;2023-09-07T06:31:00;20.29;65.77
74968;SHT30;63523;51.880;12.630;2023-09-07T06:33:25;20.36;66.12
74968;SHT30;63523;51.880;12.630;2023-09-07T06:35:51;20.45;66.23
74968;SHT30;63523;51.880;12.630;2023-09-07T06:38:16;20.59;65.26
74968;SHT30;63523;51.880;12.630;2023-09-07T06:40:47;20.65;65.68
74968;SHT30;63523;51.880;12.630;2023-09-07T06:43:13;20.77;64.95
74968;SHT30;63523;51.880;12.630;2023-09-07T06:45:38;20.89;64.44
74968;SHT30;63523;51.880;12.630;2023-09-07T06:48:04;21.00;64.12
74968;SHT30;63523;51.880;12.630;2023-09-07T06:50:29;21.17;63.71
74968;SHT30;63523;51.880;12.630;2023-09-07T06:52:55;21.18;63.74
74968;SHT30;63523;51.880;12.630;2023-09-07T06:55:20;21.30;63.15
74968;SHT30;63523;51.880;12.630;2023-09-07T06:57:45;21.39;62.87
74968;SHT30;63523;51.880;12.630;2023-09-07T07:00:11;21.46;62.86
74968;SHT30;63523;51.880;12.630;2023-09-07T07:02:37;21.49;63.14
74968;SHT30;63523;51.880;12.630;2023-09-07T07:05:02;21.53;62.95
74968;SHT30;63523;51.880;12.630;2023-09-07T07:07:29;21.48;63.10
74968;SHT30;63523;51.880;12.630;2023-09-07T07:09:54;21.60;62.39
74968;SHT30;63523;51.880;12.630;2023-09-07T07:12:20;21.80;61.52
74968;SHT30;63523;51.880;12.630;2023-09-07T07:14:46;21.93;61.22
74968;SHT30;63523;51.880;12.630;2023-09-07T07:17:11;22.03;60.20
74968;SHT30;63523;51.880;12.630;2023-09-07T07:19:36;22.08;60.47
74968;SHT30;63523;51.880;12.630;2023-09-07T07:22:02;22.13;59.53
74968;SHT30;63523;51.880;12.630;2023-09-07T07:24:28;22.32;58.80
74968;SHT30;63523;51.880;12.630;2023-09-07T07:26:53;22.37;59.11
74968;SHT30;63523;51.880;12.630;2023-09-07T07:29:18;22.40;59.06
74968;SHT30;63523;51.880;12.630;2023-09-07T07:31:44;22.47;57.83
74968;SHT30;63523;51.880;12.630;2023-09-07T07:34:09;22.51;58.06
74968;SHT30;63523;51.880;12.630;2023-09-07T07:36:35;22.52;58.94
74968;SHT30;63523;51.880;12.630;2023-09-07T07:39:00;22.62;57.22
74968;SHT30;63523;51.880;12.630;2023-09-07T07:41:26;22.62;57.71
74968;SHT30;63523;51.880;12.630;2023-09-07T07:43:51;22.79;57.15
74968;SHT30;63523;51.880;12.630;2023-09-07T07:46:17;22.89;56.41
74968;SHT30;63523;51.880;12.630;2023-09-07T07:48:44;22.93;57.08
74968;SHT30;63523;51.880;12.630;2023-09-07T07:51:10;22.96;57.48
74968;SHT30;63523;51.880;12.630;2023-09-07T07:53:35;22.99;57.47
74968;SHT30;63523;51.880;12.630;2023-09-07T07:56:00;23.10;56.97
74968;SHT30;63523;51.880;12.630;2023-09-07T07:58:26;23.28;56.23
74968;SHT30;63523;51.880;12.630;2023-09-07T08:00:51;23.38;56.00
74968;SHT30;63523;51.880;12.630;2023-09-07T08:03:17;23.51;55.60
74968;SHT30;63523;51.880;12.630;2023-09-07T08:05:42;23.65;54.30
74968;SHT30;63523;51.880;12.630;2023-09-07T08:08:08;23.77;54.44
74968;SHT30;63523;51.880;12.630;2023-09-07T08:10:34;23.93;54.55
74968;SHT30;63523;51.880;12.630;2023-09-07T08:13:01;24.00;54.28
74968;SHT30;63523;51.880;12.630;2023-09-07T08:15:28;24.16;53.67
74968;SHT30;63523;51.880;12.630;2023-09-07T08:17:53;24.31;53.30
74968;SHT30;63523;51.880;12.630;2023-09-07T08:20:19;24.45;52.27
74968;SHT30;63523;51.880;12.630;2023-09-07T08:22:44;24.51;52.78
74968;SHT30;63523;51.880;12.630;2023-09-07T08:25:11;24.64;51.94
74968;SHT30;63523;51.880;12.630;2023-09-07T08:27:41;24.83;51.57
74968;SHT30;63523;51.880;12.630;2023-09-07T08:30:16;25.00;51.71
74968;SHT30;63523;51.880;12.630;2023-09-07T08:32:43;25.09;51.54
74968;SHT30;63523;51.880;12.630;2023-09-07T08:35:09;25.11;51.91
74968;SHT30;63523;51.880;12.630;2023-09-07T08:37:38;25.24;51.55
74968;SHT30;63523;51.880;12.630;2023-09-07T08:40:03;25.52;50.60
74968;SHT30;63523;51.880;12.630;2023-09-07T08:42:30;25.68;49.07
74968;SHT30;63523;51.880;12.630;2023-09-07T08:44:56;25.78;49.15
74968;SHT30;63523;51.880;12.630;2023-09-07T08:47:26;25.86;48.59
74968;SHT30;63523;51.880;12.630;2023-09-07T08:49:55;25.86;48.49
74968;SHT30;63523;51.880;12.630;2023-09-07T08:52:21;26.03;48.07
74968;SHT30;63523;51.880;12.630;2023-09-07T08:54:48;26.24;46.55
74968;SHT30;63523;51.880;12.630;2023-09-07T08:57:13;26.38;46.08
74968;SHT30;63523;51.880;12.630;2023-09-07T08:59:39;26.51;45.08
74968;SHT30;63523;51.880;12.630;2023-09-07T09:02:09;26.56;45.86
74968;SHT30;63523;51.880;12.630;2023-09-07T09:04:35;26.64;44.33
74968;SHT30;63523;51.880;12.630;2023-09-07T09:07:00;26.73;44.68
74968;SHT30;63523;51.880;12.630;2023-09-07T09:09:30;26.86;43.89
74968;SHT30;63523;51.880;12.630;2023-09-07T09:12:09;26.98;44.36
74968;SHT30;63523;51.880;12.630;2023-09-07T09:14:35;27.13;43.40
74968;SHT30;63523;51.880;12.630;2023-09-07T09:17:00;27.36;42.63
74968;SHT30;63523;51.880;12.630;2023-09-07T09:19:33;27.51;43.09
74968;SHT30;63523;51.880;12.630;2023-09-07T09:21:58;27.73;41.19
74968;SHT30;63523;51.880;12.630;2023-09-07T09:24:24;27.85;40.79
74968;SHT30;63523;51.880;12.630;2023-09-07T09:26:49;27.98;40.85
74968;SHT30;63523;51.880;12.630;2023-09-07T09:29:14;28.05;41.55
74968;SHT30;63523;51.880;12.630;2023-09-07T09:31:40;28.13;40.11
74968;SHT30;63523;51.880;12.630;2023-09-07T09:34:06;28.12;41.00
74968;SHT30;63523;51.880;12.630;2023-09-07T09:36:36;28.14;41.20
74968;SHT30;63523;51.880;12.630;2023-09-07T09:39:01;28.18;40.39
74968;SHT30;63523;51.880;12.630;2023-09-07T09:41:31;28.23;40.81
74968;SHT30;63523;51.880;12.630;2023-09-07T09:43:57;28.20;39.86
74968;SHT30;63523;51.880;12.630;2023-09-07T09:46:24;28.17;41.43
74968;SHT30;63523;51.880;12.630;2023-09-07T09:48:51;28.27;40.33
74968;SHT30;63523;51.880;12.630;2023-09-07T09:51:17;28.40;39.73
74968;SHT30;63523;51.880;12.630;2023-09-07T09:53:44;28.55;39.91
74968;SHT30;63523;51.880;12.630;2023-09-07T09:56:10;28.67;39.57
74968;SHT30;63523;51.880;12.630;2023-09-07T09:58:35;28.82;39.34
74968;SHT30;63523;51.880;12.630;2023-09-07T10:01:01;29.03;38.75
74968;SHT30;63523;51.880;12.630;2023-09-07T10:03:36;29.19;37.50
74968;SHT30;63523;51.880;12.630;2023-09-07T10:06:19;29.35;38.58
74968;SHT30;63523;51.880;12.630;2023-09-07T10:09:05;29.38;38.50
74968;SHT30;63523;51.880;12.630;2023-09-07T10:11:33;29.50;38.44
74968;SHT30;63523;51.880;12.630;2023-09-07T10:14:02;29.62;38.57
74968;SHT30;63523;51.880;12.630;2023-09-07T10:16:28;29.74;37.91
74968;SHT30;63523;51.880;12.630;2023-09-07T10:18:54;29.85;38.01
74968;SHT30;63523;51.880;12.630;2023-09-07T10:21:23;29.88;38.66
74968;SHT30;63523;51.880;12.630;2023-09-07T10:23:51;30.01;39.23
74968;SHT30;63523;51.880;12.630;2023-09-07T10:26:18;30.02;39.12
74968;SHT30;63523;51.880;12.630;2023-09-07T10:28:46;30.08;39.06
74968;SHT30;63523;51.880;12.630;2023-09-07T10:31:18;30.19;38.69
74968;SHT30;63523;51.880;12.630;2023-09-07T10:33:44;30.30;39.01
74968;SHT30;63523;51.880;12.630;2023-09-07T10:36:26;30.26;38.74
74968;SHT30;63523;51.880;12.630;2023-09-07T10:38:54;30.33;39.43
74968;SHT30;63523;51.880;12.630;2023-09-07T10:41:20;30.37;38.88
74968;SHT30;63523;51.880;12.630;2023-09-07T10:43:50;30.50;39.08
74968;SHT30;63523;51.880;12.630;2023-09-07T10:46:20;30.60;38.57
74968;SHT30;63523;51.880;12.630;2023-09-07T10:48:48;30.68;38.66
74968;SHT30;63523;51.880;12.630;2023-09-07T10:51:14;30.75;38.64
74968;SHT30;63523;51.880;12.630;2023-09-07T10:53:39;30.75;39.25
74968;SHT30;63523;51.880;12.630;2023-09-07T10:56:05;30.92;40.15
74968;SHT30;63523;51.880;12.630;2023-09-07T10:58:35;31.23;38.61
74968;SHT30;63523;51.880;12.630;2023-09-07T11:01:01;31.36;37.43
74968;SHT30;63523;51.880;12.630;2023-09-07T11:03:30;31.22;37.19
74968;SHT30;63523;51.880;12.630;2023-09-07T11:08:33;31.43;37.62
74968;SHT30;63523;51.880;12.630;2023-09-07T11:10:59;31.63;36.79
74968;SHT30;63523;51.880;12.630;2023-09-07T11:13:26;31.51;36.74
74968;SHT30;63523;51.880;12.630;2023-09-07T11:15:56;31.47;36.68
74968;SHT30;63523;51.880;12.630;2023-09-07T11:18:22;31.33;37.19
74968;SHT30;63523;51.880;12.630;2023-09-07T11:20:49;31.30;35.88
74968;SHT30;63523;51.880;12.630;2023-09-07T11:23:15;31.22;37.10
74968;SHT30;63523;51.880;12.630;2023-09-07T11:25:40;31.05;38.11
74968;SHT30;63523;51.880;12.630;2023-09-07T11:28:08;30.94;36.94
74968;SHT30;63523;51.880;12.630;2023-09-07T11:30:34;30.57;38.99
74968;SHT30;63523;51.880;12.630;2023-09-07T11:33:05;30.44;38.54
74968;SHT30;63523;51.880;12.630;2023-09-07T11:35:31;30.33;38.22
74968;SHT30;63523;51.880;12.630;2023-09-07T11:37:56;30.17;37.86
74968;SHT30;63523;51.880;12.630;2023-09-07T11:40:21;30.15;37.95
74968;SHT30;63523;51.880;12.630;2023-09-07T11:42:47;30.12;37.87
74968;SHT30;63523;51.880;12.630;2023-09-07T11:45:12;30.09;38.27
74968;SHT30;63523;51.880;12.630;2023-09-07T11:47:38;30.02;38.30
74968;SHT30;63523;51.880;12.630;2023-09-07T11:50:05;30.02;37.78
74968;SHT30;63523;51.880;12.630;2023-09-07T11:52:31;29.99;37.98
74968;SHT30;63523;51.880;12.630;2023-09-07T11:54:57;29.89;39.00
74968;SHT30;63523;51.880;12.630;2023-09-07T11:57:22;29.89;39.70
74968;SHT30;63523;51.880;12.630;2023-09-07T11:59:47;29.92;41.10
74968;SHT30;63523;51.880;12.630;2023-09-07T12:02:12;30.10;39.23
74968;SHT30;63523;51.880;12.630;2023-09-07T12:04:40;30.16;39.30
74968;SHT30;63523;51.880;12.630;2023-09-07T12:07:05;30.17;38.98
74968;SHT30;63523;51.880;12.630;2023-09-07T12:09:30;30.19;39.35
74968;SHT30;63523;51.880;12.630;2023-09-07T12:11:56;30.32;38.07
74968;SHT30;63523;51.880;12.630;2023-09-07T12:14:21;30.20;38.40
74968;SHT30;63523;51.880;12.630;2023-09-07T12:16:47;30.32;38.35
74968;SHT30;63523;51.880;12.630;2023-09-07T12:19:13;30.32;37.35
74968;SHT30;63523;51.880;12.630;2023-09-07T12:21:38;30.19;38.26
74968;SHT30;63523;51.880;12.630;2023-09-07T12:24:03;30.34;36.92
74968;SHT30;63523;51.880;12.630;2023-09-07T12:26:29;30.26;37.65
74968;SHT30;63523;51.880;12.630;2023-09-07T12:28:54;30.22;37.33
74968;SHT30;63523;51.880;12.630;2023-09-07T12:31:19;30.20;37.40
74968;SHT30;63523;51.880;12.630;2023-09-07T12:33:45;30.06;37.01
74968;SHT30;63523;51.880;12.630;2023-09-07T12:36:10;29.98;38.37
74968;SHT30;63523;51.880;12.630;2023-09-07T12:38:37;30.04;37.81
74968;SHT30;63523;51.880;12.630;2023-09-07T12:41:02;30.22;38.16
74968;SHT30;63523;51.880;12.630;2023-09-07T12:43:27;30.22;37.76
74968;SHT30;63523;51.880;12.630;2023-09-07T12:45:53;30.10;38.59
74968;SHT30;63523;51.880;12.630;2023-09-07T12:48:19;30.16;37.52
74968;SHT30;63523;51.880;12.630;2023-09-07T12:50:45;30.10;37.84
74968;SHT30;63523;51.880;12.630;2023-09-07T12:53:10;30.22;37.06
74968;SHT30;63523;51.880;12.630;2023-09-07T12:55:35;30.27;37.51
74968;SHT30;63523;51.880;12.630;2023-09-07T12:58:01;30.26;37.64
74968;SHT30;63523;51.880;12.630;2023-09-07T13:00:27;30.22;37.79
74968;SHT30;63523;51.880;12.630;2023-09-07T13:02:54;30.29;37.52
74968;SHT30;63523;51.880;12.630;2023-09-07T13:05:19;30.29;37.75
74968;SHT30;63523;51.880;12.630;2023-09-07T13:07:45;30.16;38.15
74968;SHT30;63523;51.880;12.630;2023-09-07T13:10:11;30.26;37.82
74968;SHT30;63523;51.880;12.630;2023-09-07T13:12:36;30.27;37.76
74968;SHT30;63523;51.880;12.630;2023-09-07T13:15:03;30.30;37.17
74968;SHT30;63523;51.880;12.630;2023-09-07T13:17:28;30.29;36.57
74968;SHT30;63523;51.880;12.630;2023-09-07T13:19:54;30.23;36.81
74968;SHT30;63523;51.880;12.630;2023-09-07T13:22:19;30.24;37.41
74968;SHT30;63523;51.880;12.630;2023-09-07T13:24:44;30.29;36.63
74968;SHT30;63523;51.880;12.630;2023-09-07T13:27:09;30.44;36.36
74968;SHT30;63523;51.880;12.630;2023-09-07T13:29:36;30.40;36.34
74968;SHT30;63523;51.880;12.630;2023-09-07T13:32:01;30.37;36.37
74968;SHT30;63523;51.880;12.630;2023-09-07T13:34:27;30.45;36.44
74968;SHT30;63523;51.880;12.630;2023-09-07T13:36:53;30.50;36.40
74968;SHT30;63523;51.880;12.630;2023-09-07T13:39:18;30.39;36.75
74968;SHT30;63523;51.880;12.630;2023-09-07T13:41:44;30.41;36.21
74968;SHT30;63523;51.880;12.630;2023-09-07T13:44:09;30.45;36.82
74968;SHT30;63523;51.880;12.630;2023-09-07T13:46:34;30.45;36.45
74968;SHT30;63523;51.880;12.630;2023-09-07T13:49:00;30.44;35.96
74968;SHT30;63523;51.880;12.630;2023-09-07T13:51:25;30.41;35.60
74968;SHT30;63523;51.880;12.630;2023-09-07T13:53:51;30.45;35.22
74968;SHT30;63523;51.880;12.630;2023-09-07T13:56:17;30.48;34.85
74968;SHT30;63523;51.880;12.630;2023-09-07T13:58:43;30.36;35.18
74968;SHT30;63523;51.880;12.630;2023-09-07T14:01:08;30.37;35.31
74968;SHT30;63523;51.880;12.630;2023-09-07T14:03:34;30.37;34.80
74968;SHT30;63523;51.880;12.630;2023-09-07T14:05:59;30.37;35.90
74968;SHT30;63523;51.880;12.630;2023-09-07T14:08:25;30.37;36.08
74968;SHT30;63523;51.880;12.630;2023-09-07T14:10:50;30.48;35.42
74968;SHT30;63523;51.880;12.630;2023-09-07T14:13:17;30.54;35.60
74968;SHT30;63523;51.880;12.630;2023-09-07T14:15:43;30.54;35.03
74968;SHT30;63523;51.880;12.630;2023-09-07T14:18:08;30.63;35.20
74968;SHT30;63523;51.880;12.630;2023-09-07T14:20:34;30.65;35.62
74968;SHT30;63523;51.880;12.630;2023-09-07T14:22:59;30.61;35.73
74968;SHT30;63523;51.880;12.630;2023-09-07T14:25:26;30.60;35.87
74968;SHT30;63523;51.880;12.630;2023-09-07T14:27:51;30.54;35.33
74968;SHT30;63523;51.880;12.630;2023-09-07T14:30:17;30.63;35.57
74968;SHT30;63523;51.880;12.630;2023-09-07T14:32:43;30.57;35.26
74968;SHT30;63523;51.880;12.630;2023-09-07T14:35:08;30.60;36.02
74968;SHT30;63523;51.880;12.630;2023-09-07T14:37:34;30.56;36.05
74968;SHT30;63523;51.880;12.630;2023-09-07T14:39:59;30.65;35.22
74968;SHT30;63523;51.880;12.630;2023-09-07T14:42:25;30.61;35.52
74968;SHT30;63523;51.880;12.630;2023-09-07T14:44:50;30.48;35.86
74968;SHT30;63523;51.880;12.630;2023-09-07T14:47:16;30.44;34.68
74968;SHT30;63523;51.880;12.630;2023-09-07T14:49:41;30.48;34.30
74968;SHT30;63523;51.880;12.630;2023-09-07T14:52:07;30.47;34.91
74968;SHT30;63523;51.880;12.630;2023-09-07T14:54:32;30.45;35.53
74968;SHT30;63523;51.880;12.630;2023-09-07T14:56:57;30.47;35.24
74968;SHT30;63523;51.880;12.630;2023-09-07T14:59:22;30.45;34.76
74968;SHT30;63523;51.880;12.630;2023-09-07T15:01:48;30.45;35.29
74968;SHT30;63523;51.880;12.630;2023-09-07T15:04:13;30.45;35.01
74968;SHT30;63523;51.880;12.630;2023-09-07T15:06:39;30.40;35.46
74968;SHT30;63523;51.880;12.630;2023-09-07T15:09:05;30.40;35.41
74968;SHT30;63523;51.880;12.630;2023-09-07T15:11:31;30.27;36.08